Time;durP1;ratioP1;P1;durP2;ratioP2;P2;SDS_P1;SDS_P2;PMS_P1;PMS_P2;Temp;Humidity;BMP_temperature;BMP_pressure;BME280_temperature;BME280_humidity;BME280_pressure;Samples;Min_cycle;Max_cycle;Signal;HPM_P1;HPM_P2
2021/12/03 00:01:01;;;;;;;48.95;12.35;;;2.60;99.90;;;;;;5075685;28;20389;-75
2021/12/03 00:03:27;;;;;;;48.35;11.52;;;2.70;99.90;;;;;;5075531;28;20041;-76
2021/12/03 00:05:55;;;;;;;49.15;12.02;;;2.70;99.90;;;;;;5057954;28;20021;-76
2021/12/03 00:08:21;;;;;;;43.50;11.63;;;2.70;99.90;;;;;;5075585;28;20115;-77
2021/12/03 00:10:55;;;;;;;57.13;11.70;;;2.60;99.90;;;;;;5075356;28;20100;-76
2021/12/03 00:13:21;;;;;;;60.85;14.63;;;2.60;99.90;;;;;;5075840;28;20438;-76
2021/12/03 00:15:47;;;;;;;60.47;13.77;;;2.60;99.90;;;;;;5041006;28;20058;-76
2021/12/03 00:18:13;;;;;;;54.70;13.57;;;2.50;99.90;;;;;;5075610;28;20042;-77
2021/12/03 00:20:39;;;;;;;52.65;11.90;;;2.50;99.90;;;;;;5075207;28;20036;-77
2021/12/03 00:23:07;;;;;;;51.20;12.70;;;2.70;99.90;;;;;;5057546;28;20025;-76
2021/12/03 00:25:34;;;;;;;67.78;14.32;;;2.70;99.90;;;;;;5074866;28;20082;-76
2021/12/03 00:28:01;;;;;;;59.53;13.77;;;2.60;99.90;;;;;;5075374;28;20025;-77
2021/12/03 00:30:27;;;;;;;55.80;13.30;;;2.60;99.90;;;;;;5057654;28;20376;-76
2021/12/03 00:32:53;;;;;;;53.55;12.68;;;2.50;99.90;;;;;;5057259;28;20028;-77
2021/12/03 00:35:20;;;;;;;67.90;13.07;;;2.40;99.90;;;;;;5075069;28;20043;-75
2021/12/03 00:37:47;;;;;;;52.92;13.60;;;2.40;99.90;;;;;;5075211;28;20043;-76
2021/12/03 00:40:17;;;;;;;45.78;11.90;;;2.50;99.90;;;;;;5074782;28;20471;-76
2021/12/03 00:42:43;;;;;;;53.70;12.75;;;2.50;99.90;;;;;;5075228;28;20037;-76
2021/12/03 00:45:11;;;;;;;47.15;12.75;;;2.60;99.90;;;;;;5075068;28;20416;-77
2021/12/03 00:47:39;;;;;;;49.45;12.77;;;2.70;99.90;;;;;;5075160;28;20040;-77
2021/12/03 00:50:07;;;;;;;44.17;12.00;;;2.70;99.90;;;;;;5074760;28;20035;-77
2021/12/03 00:52:33;;;;;;;48.55;12.07;;;2.60;99.90;;;;;;5073803;28;20036;-77
2021/12/03 00:54:58;;;;;;;35.10;11.68;;;2.50;99.90;;;;;;5074426;28;20036;-77
2021/12/03 00:57:24;;;;;;;38.47;10.98;;;2.40;99.90;;;;;;5074789;28;20049;-76
2021/12/03 00:59:50;;;;;;;33.65;11.50;;;2.50;99.90;;;;;;5074703;28;20104;-77
2021/12/03 01:02:17;;;;;;;40.45;12.52;;;2.30;99.90;;;;;;5075034;28;20031;-77
2021/12/03 01:04:44;;;;;;;34.05;11.48;;;2.30;99.90;;;;;;5074600;28;20043;-77
2021/12/03 01:07:10;;;;;;;38.50;11.00;;;2.20;99.90;;;;;;5074697;28;20024;-76
2021/12/03 01:09:35;;;;;;;30.98;11.65;;;2.20;99.90;;;;;;5074079;28;20027;-77
2021/12/03 01:12:01;;;;;;;34.22;12.38;;;2.20;99.90;;;;;;5074342;28;20029;-75
2021/12/03 01:14:27;;;;;;;37.95;13.05;;;2.20;99.90;;;;;;5074488;28;20071;-76
2021/12/03 01:16:53;;;;;;;43.83;14.82;;;2.30;99.90;;;;;;5074317;28;20064;-77
2021/12/03 01:19:19;;;;;;;50.55;16.35;;;2.40;99.90;;;;;;5074291;28;20032;-77
2021/12/03 01:21:46;;;;;;;57.10;16.42;;;2.30;99.90;;;;;;5074125;28;20468;-76
2021/12/03 01:24:12;;;;;;;49.33;15.60;;;2.30;99.90;;;;;;5073915;28;20031;-76
2021/12/03 01:26:39;;;;;;;54.38;17.20;;;2.20;99.90;;;;;;5056319;28;20448;-76
2021/12/03 01:29:06;;;;;;;46.20;14.40;;;2.30;99.90;;;;;;5056361;28;20103;-76
2021/12/03 01:31:32;;;;;;;35.13;12.73;;;2.30;99.90;;;;;;5056106;28;20443;-76
2021/12/03 01:33:58;;;;;;;38.40;12.63;;;2.20;99.90;;;;;;5074081;28;20028;-75
2021/12/03 01:36:24;;;;;;;35.53;11.55;;;2.20;99.90;;;;;;5073728;28;20380;-76
2021/12/03 01:38:49;;;;;;;25.75;11.43;;;2.20;99.90;;;;;;5073738;28;20034;-76
2021/12/03 01:41:15;;;;;;;30.60;10.98;;;2.30;99.90;;;;;;5073669;28;20056;-76
2021/12/03 01:43:43;;;;;;;30.65;11.48;;;2.20;99.90;;;;;;5073846;28;20041;-77
2021/12/03 01:46:11;;;;;;;24.52;11.30;;;2.30;99.90;;;;;;5073715;28;20047;-76
2021/12/03 01:48:38;;;;;;;24.95;11.57;;;2.30;99.90;;;;;;5055973;28;20055;-76
2021/12/03 01:51:05;;;;;;;26.00;11.52;;;2.30;99.90;;;;;;5055811;28;20025;-76
2021/12/03 01:53:33;;;;;;;23.52;10.70;;;2.30;99.90;;;;;;5073434;28;20039;-76
2021/12/03 01:56:08;;;;;;;26.70;10.38;;;2.30;99.90;;;;;;5073589;28;20037;-77
2021/12/03 01:58:34;;;;;;;30.88;11.75;;;2.30;99.90;;;;;;5073584;28;20039;-76
2021/12/03 02:01:03;;;;;;;27.08;12.05;;;2.30;99.90;;;;;;5073330;28;20025;-76
2021/12/03 02:03:33;;;;;;;24.45;11.23;;;2.40;99.90;;;;;;5055226;28;20037;-76
2021/12/03 02:06:01;;;;;;;23.58;9.80;;;2.40;99.90;;;;;;5055823;28;20032;-76
2021/12/03 02:08:27;;;;;;;27.85;9.95;;;2.40;99.90;;;;;;5073114;28;20055;-77
2021/12/03 02:10:53;;;;;;;21.25;10.63;;;2.40;99.90;;;;;;5073460;28;20036;-76
2021/12/03 02:13:20;;;;;;;21.42;10.27;;;2.50;99.90;;;;;;5073114;28;20032;-76
2021/12/03 02:15:47;;;;;;;25.83;9.80;;;2.50;99.90;;;;;;5055041;28;20058;-77
2021/12/03 02:18:14;;;;;;;25.77;10.40;;;2.40;99.90;;;;;;5072820;28;20112;-76
2021/12/03 02:20:44;;;;;;;30.58;10.10;;;2.50;99.90;;;;;;5073029;28;20063;-76
2021/12/03 02:23:12;;;;;;;20.58;10.07;;;2.40;99.90;;;;;;5055188;28;20029;-76
2021/12/03 02:25:38;;;;;;;25.48;10.57;;;2.40;99.90;;;;;;5064432;28;20428;-77
2021/12/03 02:28:04;;;;;;;24.98;10.23;;;2.30;99.90;;;;;;5053188;28;20037;-77
2021/12/03 02:30:29;;;;;;;30.02;10.93;;;2.30;99.90;;;;;;5053076;28;20037;-76
2021/12/03 02:32:55;;;;;;;30.27;10.05;;;2.20;99.90;;;;;;5052986;28;20037;-76
2021/12/03 02:35:23;;;;;;;20.60;10.00;;;2.30;99.90;;;;;;5052866;28;20037;-77
2021/12/03 02:37:50;;;;;;;28.23;9.43;;;2.30;99.90;;;;;;5035091;28;20501;-76
2021/12/03 02:40:17;;;;;;;34.38;10.43;;;2.30;99.90;;;;;;5053069;28;20021;-76
2021/12/03 02:42:43;;;;;;;19.70;8.85;;;2.30;99.90;;;;;;5052927;28;20033;-77
2021/12/03 02:45:10;;;;;;;27.98;9.38;;;2.30;99.90;;;;;;5052814;28;20124;-76
2021/12/03 02:47:37;;;;;;;36.10;10.60;;;2.30;99.90;;;;;;5052847;28;20381;-76
2021/12/03 02:50:04;;;;;;;31.58;9.73;;;2.50;99.90;;;;;;5034889;28;20477;-77
2021/12/03 02:52:30;;;;;;;20.98;7.47;;;2.50;99.90;;;;;;5052605;28;20053;-76
2021/12/03 02:54:56;;;;;;;31.92;8.57;;;2.50;99.90;;;;;;5052755;28;20490;-76
2021/12/03 02:57:22;;;;;;;33.22;8.85;;;2.60;99.90;;;;;;5052612;28;20045;-76
2021/12/03 02:59:48;;;;;;;31.45;8.23;;;2.60;99.90;;;;;;5052656;28;20100;-76
2021/12/03 03:02:14;;;;;;;27.30;8.10;;;2.50;99.90;;;;;;5052965;28;20053;-76
2021/12/03 03:04:40;;;;;;;29.27;7.55;;;2.60;99.90;;;;;;5052517;28;20084;-76
2021/12/03 03:07:05;;;;;;;25.05;8.07;;;2.50;99.90;;;;;;5052890;28;20389;-76
2021/12/03 03:09:32;;;;;;;24.33;6.47;;;2.50;99.90;;;;;;5068590;28;20095;-76
2021/12/03 03:11:58;;;;;;;30.52;7.60;;;2.60;99.90;;;;;;5072837;28;20037;-77
2021/12/03 03:14:24;;;;;;;31.80;7.88;;;2.70;99.90;;;;;;5072675;28;20016;-76
2021/12/03 03:16:51;;;;;;;24.48;6.50;;;2.70;99.90;;;;;;5076867;28;20048;-75
2021/12/03 03:19:20;;;;;;;33.97;7.10;;;2.70;99.90;;;;;;5058554;28;20173;-76
2021/12/03 03:21:46;;;;;;;27.00;6.78;;;2.70;99.90;;;;;;5076669;28;20033;-76
2021/12/03 03:24:14;;;;;;;24.05;6.90;;;2.80;99.90;;;;;;5043662;28;20493;-76
2021/12/03 03:26:42;;;;;;;26.40;7.05;;;2.80;99.90;;;;;;5059944;28;20036;-76
2021/12/03 03:29:12;;;;;;;24.63;6.45;;;2.90;99.90;;;;;;5056321;28;20037;-77
2021/12/03 03:31:38;;;;;;;31.67;7.30;;;2.80;99.90;;;;;;5056621;28;20021;-75
2021/12/03 03:34:06;;;;;;;25.35;6.78;;;2.70;99.90;;;;;;5056118;28;20377;-76
2021/12/03 03:36:34;;;;;;;27.70;7.10;;;2.70;99.90;;;;;;5056232;28;20071;-76
2021/12/03 03:39:00;;;;;;;25.95;7.47;;;2.70;99.90;;;;;;5038367;28;20370;-76
2021/12/03 03:41:27;;;;;;;27.65;8.27;;;2.70;99.90;;;;;;5056254;28;20047;-76
2021/12/03 03:43:52;;;;;;;24.23;7.22;;;2.70;99.90;;;;;;5038461;28;20055;-76
2021/12/03 03:46:18;;;;;;;24.92;5.75;;;2.60;99.90;;;;;;5056131;28;20069;-76
2021/12/03 03:48:44;;;;;;;26.73;7.85;;;2.50;99.90;;;;;;5055828;28;20028;-76
2021/12/03 03:51:11;;;;;;;23.98;7.35;;;2.60;99.90;;;;;;5055985;28;20031;-76
2021/12/03 03:53:38;;;;;;;22.10;7.45;;;2.60;99.90;;;;;;5037845;28;20112;-76
2021/12/03 03:56:06;;;;;;;24.20;7.40;;;2.60;99.90;;;;;;5055871;28;20043;-77
2021/12/03 03:58:32;;;;;;;26.23;7.75;;;2.60;99.90;;;;;;5066006;28;20024;-75
2021/12/03 04:00:58;;;;;;;21.48;7.85;;;2.50;99.90;;;;;;5057876;28;20089;-76
2021/12/03 04:03:24;;;;;;;35.53;8.13;;;2.50;99.90;;;;;;5075512;28;20035;-76
2021/12/03 04:05:50;;;;;;;29.15;7.65;;;2.50;99.90;;;;;;5057760;28;20447;-76
2021/12/03 04:08:16;;;;;;;18.08;4.10;;;2.60;99.90;;;;;;5075748;28;20032;-76
2021/12/03 04:10:42;;;;;;;21.42;5.70;;;2.50;99.90;;;;;;5075540;28;20081;-76
2021/12/03 04:13:07;;;;;;;16.58;6.32;;;2.50;99.90;;;;;;5057686;28;20024;-76
2021/12/03 04:15:33;;;;;;;29.85;7.65;;;2.40;99.90;;;;;;5075176;28;20587;-77
2021/12/03 04:17:59;;;;;;;21.63;6.10;;;2.40;99.90;;;;;;5057498;28;20043;-77
2021/12/03 04:20:25;;;;;;;25.00;5.97;;;2.40;99.90;;;;;;5057446;28;20081;-77
2021/12/03 04:22:52;;;;;;;21.00;5.88;;;2.40;99.90;;;;;;5075463;28;20029;-76
2021/12/03 04:25:20;;;;;;;25.90;6.18;;;2.30;99.90;;;;;;5075061;28;20036;-77
2021/12/03 04:27:47;;;;;;;31.40;5.60;;;2.30;99.90;;;;;;5057458;28;20020;-76
2021/12/03 04:30:26;;;;;;;27.13;5.18;;;2.30;99.90;;;;;;5075440;28;20108;-77
2021/12/03 04:32:53;;;;;;;26.98;6.28;;;2.30;99.90;;;;;;5074973;28;20388;-76
2021/12/03 04:35:19;;;;;;;18.50;5.13;;;2.30;99.90;;;;;;5075089;28;20028;-76
2021/12/03 04:37:45;;;;;;;30.73;6.05;;;2.40;99.90;;;;;;5075206;28;20044;-76
2021/12/03 04:40:14;;;;;;;22.65;5.95;;;2.30;99.90;;;;;;5057293;28;20082;-76
2021/12/03 04:42:40;;;;;;;25.73;6.25;;;2.40;99.90;;;;;;5075185;28;20021;-75
2021/12/03 04:45:08;;;;;;;25.33;6.25;;;2.50;99.90;;;;;;5075106;28;20029;-76
2021/12/03 04:47:34;;;;;;;25.52;5.40;;;2.50;99.90;;;;;;5074666;28;20036;-77
2021/12/03 04:50:02;;;;;;;21.25;5.93;;;2.60;99.90;;;;;;5074930;28;20024;-76
2021/12/03 04:52:28;;;;;;;24.33;5.50;;;2.60;99.90;;;;;;5074830;28;20029;-76
2021/12/03 04:54:54;;;;;;;17.13;5.38;;;2.50;99.90;;;;;;5074847;28;20492;-76
2021/12/03 04:57:19;;;;;;;24.02;5.97;;;2.50;99.90;;;;;;5056824;28;20508;-76
2021/12/03 04:59:45;;;;;;;13.43;4.43;;;2.40;99.90;;;;;;5074582;28;20024;-77
2021/12/03 05:02:11;;;;;;;20.67;5.95;;;2.30;99.90;;;;;;5074378;28;20032;-76
2021/12/03 05:04:38;;;;;;;16.27;5.05;;;2.40;99.90;;;;;;5056663;28;20142;-77
2021/12/03 05:09:34;;;;;;;23.73;6.10;;;2.50;99.90;;;;;;5074237;28;20038;-75
2021/12/03 05:12:00;;;;;;;16.75;5.43;;;2.60;99.90;;;;;;5074539;28;20119;-76
2021/12/03 05:14:26;;;;;;;26.00;6.30;;;2.50;99.90;;;;;;5074513;28;20372;-75
2021/12/03 05:16:52;;;;;;;19.63;5.38;;;2.40;99.90;;;;;;5074084;28;20048;-75
2021/12/03 05:19:18;;;;;;;26.25;5.72;;;2.60;99.90;;;;;;5074285;28;20116;-75
2021/12/03 05:21:44;;;;;;;18.15;5.38;;;2.50;99.90;;;;;;5074542;28;20024;-76
2021/12/03 05:24:11;;;;;;;26.13;7.85;;;2.40;99.90;;;;;;5074281;28;20028;-76
2021/12/03 05:26:38;;;;;;;26.52;7.93;;;2.50;99.90;;;;;;5073982;28;20542;-76
2021/12/03 05:29:06;;;;;;;27.02;5.72;;;2.50;99.90;;;;;;5074021;28;20030;-76
2021/12/03 05:31:32;;;;;;;21.90;6.50;;;2.50;99.90;;;;;;5073911;28;20024;-76
2021/12/03 05:33:58;;;;;;;23.40;6.70;;;2.50;99.90;;;;;;5056206;28;20405;-76
2021/12/03 05:36:25;;;;;;;27.52;5.90;;;2.50;99.90;;;;;;5073853;28;20020;-76
2021/12/03 05:38:51;;;;;;;27.73;6.53;;;2.50;99.90;;;;;;5073587;28;20029;-76
2021/12/03 05:41:17;;;;;;;22.55;7.53;;;2.40;99.90;;;;;;5073917;28;20020;-76
2021/12/03 05:43:43;;;;;;;31.33;9.57;;;2.40;99.90;;;;;;5073535;28;20457;-75
2021/12/03 05:46:09;;;;;;;20.10;6.15;;;2.40;99.90;;;;;;5073847;28;20032;-76
2021/12/03 05:48:35;;;;;;;21.75;6.32;;;2.40;99.90;;;;;;5073736;28;20358;-76
2021/12/03 05:51:01;;;;;;;24.23;6.88;;;2.40;99.90;;;;;;5073708;28;20082;-76
2021/12/03 05:53:26;;;;;;;22.23;5.57;;;2.50;99.90;;;;;;5073764;28;20040;-76
2021/12/03 05:55:52;;;;;;;27.65;6.18;;;2.50;99.90;;;;;;5073525;28;20028;-76
2021/12/03 05:58:18;;;;;;;25.73;6.53;;;2.50;99.90;;;;;;5073143;28;20439;-76
2021/12/03 06:00:44;;;;;;;30.98;5.30;;;2.50;99.90;;;;;;5073907;28;20022;-76
2021/12/03 06:03:11;;;;;;;21.80;6.38;;;2.50;99.90;;;;;;5073490;28;20036;-76
2021/12/03 06:05:40;;;;;;;32.60;7.82;;;2.60;99.90;;;;;;5073522;28;20095;-75
2021/12/03 06:08:06;;;;;;;26.42;6.05;;;2.60;99.90;;;;;;5073283;28;20039;-75
2021/12/03 06:10:33;;;;;;;25.55;5.47;;;2.50;99.90;;;;;;5055509;28;20100;-76
2021/12/03 06:12:59;;;;;;;21.23;5.22;;;2.50;99.90;;;;;;5054966;28;20025;-76
2021/12/03 06:15:25;;;;;;;21.40;5.80;;;2.60;99.90;;;;;;5073388;28;20024;-76
2021/12/03 06:17:51;;;;;;;18.58;5.28;;;2.70;99.90;;;;;;5073096;28;20537;-75
2021/12/03 06:20:18;;;;;;;21.58;4.28;;;2.70;99.90;;;;;;5055219;28;20032;-75
2021/12/03 06:22:44;;;;;;;32.92;6.50;;;2.70;99.90;;;;;;5073041;28;20028;-76
2021/12/03 06:25:11;;;;;;;25.85;5.45;;;2.70;99.90;;;;;;5073099;28;20020;-75
2021/12/03 06:27:38;;;;;;;20.30;5.07;;;2.70;99.90;;;;;;5072835;28;20016;-76
2021/12/03 06:30:10;;;;;;;25.92;6.32;;;2.60;99.90;;;;;;5073238;28;20028;-76
2021/12/03 06:32:36;;;;;;;22.23;5.65;;;2.60;99.90;;;;;;5055271;28;20055;-76
2021/12/03 06:35:03;;;;;;;22.90;5.97;;;2.50;99.90;;;;;;5073184;28;20452;-76
2021/12/03 06:37:29;;;;;;;27.02;6.93;;;2.50;99.90;;;;;;5072817;28;20059;-75
2021/12/03 06:39:55;;;;;;;27.33;6.55;;;2.60;99.90;;;;;;5072947;28;20465;-76
2021/12/03 06:42:21;;;;;;;24.92;6.55;;;2.60;99.90;;;;;;5072551;28;20032;-75
2021/12/03 06:44:47;;;;;;;29.52;6.65;;;2.50;99.90;;;;;;5072857;28;20102;-75
2021/12/03 06:47:12;;;;;;;26.33;7.65;;;2.50;99.90;;;;;;5072826;28;20063;-75
2021/12/03 06:49:38;;;;;;;32.55;7.82;;;2.60;99.90;;;;;;5071898;28;20078;-75
2021/12/03 06:52:08;;;;;;;23.30;6.93;;;2.60;99.90;;;;;;5054847;28;20033;-75
2021/12/03 06:54:35;;;;;;;31.52;8.48;;;2.60;99.90;;;;;;5054729;28;20032;-76
2021/12/03 06:57:04;;;;;;;30.70;9.50;;;2.60;99.90;;;;;;5072458;28;20131;-76
2021/12/03 06:59:30;;;;;;;37.25;10.63;;;2.60;99.90;;;;;;5072422;28;20021;-75
2021/12/03 07:01:56;;;;;;;35.90;9.82;;;2.50;99.90;;;;;;5054895;28;20028;-75
2021/12/03 07:04:22;;;;;;;28.33;11.60;;;2.60;99.90;;;;;;5072716;28;20107;-75
2021/12/03 07:06:48;;;;;;;41.92;8.73;;;2.60;99.90;;;;;;5072771;28;20036;-76
2021/12/03 07:09:14;;;;;;;46.33;9.82;;;2.50;99.90;;;;;;5072423;28;20035;-75
2021/12/03 07:11:41;;;;;;;31.92;7.97;;;2.60;99.90;;;;;;5072436;28;20021;-77
2021/12/03 07:14:06;;;;;;;25.67;7.72;;;2.50;99.90;;;;;;5072533;28;20112;-75
2021/12/03 07:16:33;;;;;;;28.90;7.20;;;2.50;99.90;;;;;;5072412;28;20174;-76
2021/12/03 07:18:58;;;;;;;33.53;8.38;;;2.50;99.90;;;;;;5072409;28;20033;-75
2021/12/03 07:21:24;;;;;;;31.65;7.68;;;2.50;99.90;;;;;;5054740;28;20074;-76
2021/12/03 07:23:51;;;;;;;33.60;8.75;;;2.50;99.90;;;;;;5072271;28;20036;-76
2021/12/03 07:26:22;;;;;;;49.67;8.18;;;2.60;99.90;;;;;;5072076;28;20107;-76
2021/12/03 07:28:49;;;;;;;30.48;7.13;;;2.60;99.90;;;;;;5072419;28;20032;-76
2021/12/03 07:31:14;;;;;;;27.67;7.15;;;2.60;99.90;;;;;;5072353;28;20051;-75
2021/12/03 07:33:40;;;;;;;35.88;8.07;;;2.60;99.90;;;;;;5072215;28;20040;-76
2021/12/03 07:36:06;;;;;;;27.17;6.95;;;2.60;99.90;;;;;;5070468;28;20029;-75
2021/12/03 07:38:33;;;;;;;29.13;6.45;;;2.60;99.90;;;;;;5051514;28;20037;-76
2021/12/03 07:41:00;;;;;;;23.60;5.47;;;2.60;99.90;;;;;;5051842;28;20032;-74
2021/12/03 07:43:26;;;;;;;28.95;5.93;;;2.70;99.90;;;;;;5034131;28;20116;-76
2021/12/03 07:45:52;;;;;;;26.67;6.63;;;2.70;99.90;;;;;;5034001;28;20025;-76
2021/12/03 07:48:21;;;;;;;23.48;6.53;;;2.80;99.90;;;;;;5071582;28;20036;-77
2021/12/03 07:50:47;;;;;;;30.25;6.70;;;2.80;99.90;;;;;;5054067;28;20063;-76
2021/12/03 07:53:16;;;;;;;24.30;6.28;;;2.80;99.90;;;;;;5071938;28;20107;-76
2021/12/03 07:55:43;;;;;;;25.23;6.23;;;2.90;99.90;;;;;;5053718;28;20025;-81
2021/12/03 07:58:09;;;;;;;28.88;6.18;;;2.90;99.90;;;;;;5072041;28;20578;-76
2021/12/03 08:00:35;;;;;;;34.25;6.22;;;3.00;99.90;;;;;;5072119;28;20029;-76
2021/12/03 08:03:00;;;;;;;29.35;5.72;;;3.10;99.90;;;;;;5075589;28;20082;-76
2021/12/03 08:05:27;;;;;;;35.80;6.32;;;3.00;99.90;;;;;;5073422;28;20040;-76
2021/12/03 08:07:52;;;;;;;30.92;6.70;;;3.10;99.90;;;;;;5071272;28;20052;-76
2021/12/03 08:10:18;;;;;;;21.17;6.90;;;3.10;99.90;;;;;;5074884;28;20538;-76
2021/12/03 08:12:45;;;;;;;26.35;7.25;;;3.00;99.90;;;;;;5075356;28;20024;-76
2021/12/03 08:15:13;;;;;;;29.33;6.97;;;3.10;99.90;;;;;;5075200;28;20021;-77
2021/12/03 08:17:40;;;;;;;26.10;6.38;;;3.20;99.90;;;;;;5075215;28;20047;-76
2021/12/03 08:20:07;;;;;;;26.00;5.90;;;3.10;99.90;;;;;;5075102;28;20033;-75
2021/12/03 08:22:33;;;;;;;20.63;5.75;;;3.10;99.90;;;;;;5075086;28;20376;-77
2021/12/03 08:24:59;;;;;;;25.20;6.15;;;3.10;99.90;;;;;;5053107;28;20021;-76
2021/12/03 08:27:25;;;;;;;17.50;4.80;;;3.20;99.90;;;;;;5037384;28;20108;-77
2021/12/03 08:29:51;;;;;;;13.73;4.57;;;3.30;99.90;;;;;;5054894;28;20167;-76
2021/12/03 08:32:17;;;;;;;32.20;5.10;;;3.20;99.90;;;;;;5053270;28;20107;-76
2021/12/03 08:34:42;;;;;;;22.00;5.15;;;3.30;99.90;;;;;;5074968;28;20075;-76
2021/12/03 08:37:09;;;;;;;17.60;4.22;;;3.40;99.90;;;;;;5040957;28;20504;-76
2021/12/03 08:39:36;;;;;;;27.65;5.70;;;3.30;99.90;;;;;;5054157;28;20017;-77
2021/12/03 08:42:04;;;;;;;21.58;5.65;;;3.40;99.90;;;;;;5065023;28;20024;-76
2021/12/03 08:44:30;;;;;;;22.33;5.10;;;3.50;99.90;;;;;;5069975;28;20013;-76
2021/12/03 08:46:58;;;;;;;25.90;5.53;;;3.50;99.90;;;;;;5057168;28;20056;-75
2021/12/03 08:49:32;;;;;;;24.75;5.65;;;3.50;99.90;;;;;;5056437;28;20032;-75
2021/12/03 08:54:49;;;;;;;27.67;4.85;;;3.50;99.90;;;;;;5043279;28;20045;-76
2021/12/03 08:57:16;;;;;;;23.25;6.20;;;3.50;99.90;;;;;;5074824;28;20512;-75
2021/12/03 08:59:42;;;;;;;21.65;4.90;;;3.50;99.90;;;;;;5074609;28;20096;-74
2021/12/03 09:02:07;;;;;;;24.15;6.90;;;3.60;99.90;;;;;;5056534;28;20557;-75
2021/12/03 09:04:33;;;;;;;16.20;6.15;;;3.70;99.90;;;;;;5074565;28;20029;-75
2021/12/03 09:07:01;;;;;;;26.88;5.35;;;3.60;99.90;;;;;;5074360;28;20024;-75
2021/12/03 09:09:27;;;;;;;13.38;3.97;;;3.60;99.90;;;;;;5056492;28;20021;-76
2021/12/03 09:11:54;;;;;;;28.17;5.90;;;3.70;99.90;;;;;;5055950;28;20366;-75
2021/12/03 09:16:52;;;;;;;21.65;5.10;;;3.70;99.90;;;;;;5071099;28;20034;-75
2021/12/03 09:19:24;;;;;;;26.48;6.75;;;3.80;99.90;;;;;;5074351;28;20459;-75
2021/12/03 09:21:49;;;;;;;32.30;5.82;;;3.80;99.90;;;;;;5068911;28;20028;-75
2021/12/03 09:24:18;;;;;;;17.45;4.90;;;3.90;99.90;;;;;;5073896;28;20025;-75
2021/12/03 09:26:44;;;;;;;19.15;4.38;;;3.90;99.90;;;;;;5056163;28;20394;-75
2021/12/03 09:29:13;;;;;;;23.95;8.13;;;3.80;99.90;;;;;;5036523;28;20044;-75
2021/12/03 09:31:42;;;;;;;19.17;5.90;;;3.90;99.90;;;;;;5035935;28;20029;-76
2021/12/03 09:34:10;;;;;;;20.38;5.25;;;3.90;99.90;;;;;;5036125;28;20078;-75
2021/12/03 09:36:41;;;;;;;16.50;5.25;;;4.00;99.90;;;;;;5053565;28;20037;-76
2021/12/03 09:39:15;;;;;;;20.52;6.03;;;4.10;99.90;;;;;;5054054;28;20040;-75
2021/12/03 09:41:41;;;;;;;17.60;6.85;;;4.20;99.90;;;;;;5053896;28;20051;-75
2021/12/03 09:44:07;;;;;;;13.07;5.28;;;4.20;99.90;;;;;;5053793;28;20108;-75
2021/12/03 09:46:33;;;;;;;22.35;5.63;;;4.10;99.90;;;;;;5053534;28;20155;-75
2021/12/03 09:51:58;;;;;;;18.02;5.28;;;4.30;99.90;;;;;;5035045;28;20032;-75
2021/12/03 09:54:47;;;;;;;15.90;4.97;;;4.20;99.90;;;;;;5053541;28;20044;-75
2021/12/03 09:57:30;;;;;;;12.07;4.18;;;4.20;99.90;;;;;;5053323;28;20037;-74
2021/12/03 10:13:19;;;;;;;19.17;6.05;;;4.30;99.90;;;;;;5053137;28;20029;-75
2021/12/03 10:15:59;;;;;;;20.00;5.28;;;4.30;99.90;;;;;;5053296;28;20029;-74
2021/12/03 10:19:01;;;;;;;14.60;4.68;;;4.50;99.90;;;;;;5053366;28;20091;-74
2021/12/03 10:24:40;;;;;;;17.98;4.78;;;4.40;99.90;;;;;;5061877;28;20089;-74
2021/12/03 10:38:43;;;;;;;18.65;4.72;;;4.70;99.90;;;;;;5070599;28;20182;-75
2021/12/03 10:41:19;;;;;;;19.92;4.93;;;4.80;99.90;;;;;;5072098;28;20149;-75
2021/12/03 11:37:46;;;;;;;11.35;3.33;;;5.20;99.90;;;;;;5055503;28;20114;-74
2021/12/03 13:19:47;;;;;;;9.63;5.53;;;4.70;99.90;;;;;;5054415;28;20485;-75
2021/12/03 13:56:19;;;;;;;8.25;3.20;;;4.70;99.90;;;;;;5035620;28;20029;-75
2021/12/03 14:43:21;;;;;;;;;;;4.40;99.90;;;;;;5035538;28;19916;-74
2021/12/03 14:48:50;;;;;;;11.00;4.45;;;4.50;99.90;;;;;;5055128;28;20397;-77
2021/12/03 14:55:18;;;;;;;6.53;4.80;;;4.50;99.90;;;;;;5052688;28;20049;-76
2021/12/03 14:57:30;;;;;;;6.75;4.20;;;4.50;99.90;;;;;;5048295;28;20081;-76
2021/12/03 15:00:47;;;;;;;6.63;4.75;;;4.50;99.90;;;;;;5054788;28;20060;-76
2021/12/03 15:08:27;;;;;;;9.30;5.07;;;4.50;99.90;;;;;;5066857;28;20028;-77
2021/12/03 15:32:10;;;;;;;10.65;5.70;;;4.50;99.90;;;;;;5077539;28;20112;-76
2021/12/03 15:34:48;;;;;;;5.40;4.72;;;4.60;99.90;;;;;;5076647;28;20384;-76
2021/12/03 16:04:19;;;;;;;7.28;5.35;;;4.50;99.90;;;;;;5075851;28;20044;-77
2021/12/03 16:12:24;;;;;;;6.80;5.60;;;4.50;99.90;;;;;;5075791;28;20028;-75
2021/12/03 16:15:03;;;;;;;4.22;3.72;;;4.60;99.90;;;;;;5057643;28;20487;-75
2021/12/03 16:45:23;;;;;;;4.35;3.85;;;4.60;99.90;;;;;;5071563;28;20114;-76
2021/12/03 16:52:59;;;;;;;7.75;6.47;;;4.60;99.90;;;;;;5073693;28;20036;-75
2021/12/03 16:55:25;;;;;;;6.07;5.47;;;4.60;99.90;;;;;;5074119;28;20036;-76
2021/12/03 16:57:53;;;;;;;7.10;4.78;;;4.70;99.90;;;;;;5074309;28;20070;-75
2021/12/03 17:13:56;;;;;;;6.65;5.57;;;4.70;99.90;;;;;;5061208;28;20033;-76
2021/12/03 17:19:57;;;;;;;6.60;5.90;;;4.70;99.90;;;;;;5053890;28;20045;-75
2021/12/03 17:22:30;;;;;;;6.93;6.07;;;4.80;99.90;;;;;;5035227;28;20033;-75
2021/12/03 17:51:36;;;;;;;7.13;6.43;;;4.80;99.90;;;;;;5035414;28;20053;-75
2021/12/03 17:56:34;;;;;;;5.68;5.18;;;4.80;99.90;;;;;;5053268;28;20051;-75
2021/12/03 17:59:22;;;;;;;6.38;5.60;;;4.80;99.90;;;;;;5035496;28;20031;-76
2021/12/03 18:45:56;;;;;;;8.98;7.50;;;4.70;99.90;;;;;;5052676;28;20493;-76
2021/12/03 18:56:18;;;;;;;9.23;8.10;;;4.70;99.90;;;;;;5052657;28;20021;-74
2021/12/03 18:58:44;;;;;;;8.38;7.47;;;4.70;99.90;;;;;;5051476;28;20126;-74
2021/12/03 19:01:12;;;;;;;8.70;7.68;;;4.80;99.90;;;;;;5052273;28;20036;-74
2021/12/03 19:06:36;;;;;;;9.10;7.22;;;4.80;99.90;;;;;;5034829;28;20049;-74
2021/12/03 19:09:15;;;;;;;11.30;8.95;;;4.80;99.90;;;;;;5064286;28;20036;-73
2021/12/03 19:14:29;;;;;;;12.88;8.55;;;4.90;99.90;;;;;;5072406;28;20032;-73
2021/12/03 19:16:55;;;;;;;12.05;8.02;;;4.80;99.90;;;;;;5072116;28;20024;-74
2021/12/03 19:19:20;;;;;;;12.73;9.63;;;4.80;99.90;;;;;;5072176;28;20028;-74
2021/12/03 19:21:48;;;;;;;10.43;8.93;;;4.80;99.90;;;;;;5072258;28;20488;-74
2021/12/03 19:24:16;;;;;;;12.10;9.55;;;4.80;99.90;;;;;;5071772;28;20473;-74
2021/12/03 19:26:43;;;;;;;13.88;9.40;;;4.80;99.90;;;;;;5037022;28;20427;-75
2021/12/03 19:29:12;;;;;;;12.00;10.00;;;4.80;99.90;;;;;;5052301;28;20078;-74
2021/12/03 19:31:39;;;;;;;11.98;10.15;;;4.90;99.90;;;;;;5051809;28;20508;-74
2021/12/03 19:34:05;;;;;;;15.00;11.15;;;4.80;99.90;;;;;;5052217;28;20075;-74
2021/12/03 19:36:38;;;;;;;16.10;10.75;;;5.00;99.90;;;;;;5034344;28;20045;-74
2021/12/03 19:39:05;;;;;;;13.95;11.65;;;4.90;99.90;;;;;;5052044;28;20035;-73
2021/12/03 19:44:20;;;;;;;15.88;12.43;;;4.90;99.90;;;;;;5051942;28;20681;-74
2021/12/03 19:46:48;;;;;;;15.30;12.68;;;4.90;99.90;;;;;;5052095;28;20032;-74
2021/12/03 19:51:47;;;;;;;16.58;12.68;;;4.90;99.90;;;;;;5051812;28;20033;-74
2021/12/03 19:54:14;;;;;;;19.23;12.40;;;4.90;99.90;;;;;;5052036;28;20496;-74
2021/12/03 19:56:40;;;;;;;16.30;11.88;;;4.90;99.90;;;;;;5034579;28;20029;-73
2021/12/03 19:59:07;;;;;;;19.58;14.13;;;4.90;99.90;;;;;;5055594;28;20033;-73
2021/12/03 20:01:35;;;;;;;17.63;13.35;;;4.90;99.90;;;;;;5037705;28;20032;-74
2021/12/03 20:04:03;;;;;;;18.20;14.05;;;5.00;99.90;;;;;;5054634;28;20079;-73
2021/12/03 20:06:29;;;;;;;17.95;11.15;;;4.90;99.90;;;;;;5055663;28;20020;-76
2021/12/03 20:08:58;;;;;;;17.40;12.75;;;5.00;99.90;;;;;;5066481;28;20032;-77
2021/12/03 20:11:38;;;;;;;18.92;12.95;;;5.00;99.90;;;;;;5075514;28;20481;-76
2021/12/03 20:14:06;;;;;;;17.73;12.23;;;5.00;99.90;;;;;;5057285;28;20115;-76
2021/12/03 20:21:52;;;;;;;16.88;13.43;;;5.20;99.90;;;;;;5075248;28;20029;-74
2021/12/03 20:25:31;;;;;;;19.70;14.05;;;5.10;99.90;;;;;;5075576;28;20119;-74
2021/12/03 20:27:14;;;;;;;18.60;13.38;;;5.20;99.90;;;;;;5046251;28;20051;-75
2021/12/03 20:29:54;;;;;;;19.63;13.77;;;5.20;99.90;;;;;;5054935;28;20013;-74
2021/12/03 20:37:40;;;;;;;19.63;14.32;;;5.10;99.90;;;;;;5054952;28;20048;-76
2021/12/03 20:40:15;;;;;;;14.02;11.43;;;5.10;99.90;;;;;;5055020;28;20054;-74
2021/12/03 21:09:17;;;;;;;13.98;11.30;;;5.10;99.90;;;;;;5067229;28;20032;-77
2021/12/03 21:11:53;;;;;;;13.00;10.40;;;5.10;99.90;;;;;;5074130;28;20028;-76
2021/12/03 21:14:20;;;;;;;16.63;12.75;;;5.20;99.90;;;;;;5074500;28;20365;-76
2021/12/03 21:16:57;;;;;;;12.73;10.00;;;5.20;99.90;;;;;;5074360;28;20047;-76
2021/12/03 21:22:10;;;;;;;14.15;10.73;;;5.30;99.90;;;;;;5074274;28;20542;-76
2021/12/03 21:24:39;;;;;;;14.82;10.68;;;5.20;99.90;;;;;;5074121;28;20035;-75
2021/12/03 21:27:09;;;;;;;14.02;10.65;;;5.20;99.90;;;;;;5056027;28;20044;-75